Flugplatz Meinerzhagen (EDKZ)

Hier findest Du alle Informationen zum Flugplatz Meinerzhagen (EDKZ).

Informationen für Piloten zum Flugplatz Meinerzhagen

Hier findest Du alle relevanten Informationen, die Du als Pilot benötigst, um Meinerzhagen anzufliegen.

Flugplatz: Meinerzhagen ICAO-Code: EDKZ
Frequenz Turm: 130,600 Mhz GAFOR Gebiet: 35
Frequenz Ground: 130,600 Mhz Mogas: nein
Platzrunde: N 2400 ft Landegebühr: -
Platzhöhe: - Sunrise: 05:26 Uhr UTC
Pisten: 07/25 - 820 m x 20 m, ASPH Sunset: 17:13 Uhr UTC

Flugwetter am Flugplatz Meinerzhagen

Die METAR Information stammen aus EDDK (41.28 km entfernt).

METAR Code:
2020/09/13 18:20
EDDK 131820Z VRB01KT CAVOK 19/14 Q1025 NOSIG

Temperatur: 8,3 °C Niederschlag: - Wind: 1,7 kt (max.: 5,2 kt in Böen)
Temperatur (min.): 7,8 °C Luftdruck: 1013 hPa Windrichtung: 127 °
Temperatur (max.): 9,4 °C Luftfeuchtigkeit: 90 % Bewölkung: 3/8

Flugschulen am Flugplatz Meinerzhagen

Am Flugplatz Meinerzhagen gibt es eine Flugschule.

Flugluft.de Tragschrauber

Benachbarte Flugplätze und Flugschulen

Es gibt 21 weitere Flugplätze in einem Umkreis von 50 km um den Flugplatz Meinerzhagen.

Jetzt anmelden

Passwort vergessen

Umfrage Archiv

Wären Rettungsgeräte keine Pflicht mehr, würdet Ihr Euer UL trotzdem mit einem ausstatten?

Ja
85.8 %
Nein
14.2 %
Stimmen: 324 | Diskussion
Anzeige: Roland Aircraft
Statistik Alle Mitglieder

Aktuell sind 37 Besucher online.

Anzeige: VFR Sprechfunk Simulator


Anzeige: Pocket FMS